createdAt,value
2022-08-28T00:03:30.802Z,78.8
2022-08-28T00:09:05.678Z,78.9
2022-08-28T00:14:41.122Z,79
2022-08-28T00:20:17.585Z,79
2022-08-28T00:25:55.713Z,79.2
2022-08-28T00:31:30.756Z,79.3
2022-08-28T00:37:06.840Z,79.4
2022-08-28T00:43:04.700Z,79.5
2022-08-28T00:48:39.418Z,79.8
2022-08-28T00:54:14.355Z,79.9
2022-08-28T00:59:53.349Z,80
2022-08-28T01:05:28.019Z,80.1
2022-08-28T01:11:02.813Z,80.3
2022-08-28T01:16:37.663Z,80.3
2022-08-28T01:22:12.673Z,80.3
2022-08-28T01:27:47.401Z,80.4
2022-08-28T01:33:28.623Z,80.3
2022-08-28T01:39:04.484Z,80.5
2022-08-28T01:45:01.166Z,80.6
2022-08-28T01:50:33.988Z,80.8
2022-08-28T01:56:09.201Z,80.8
2022-08-28T02:01:44.349Z,80.8
2022-08-28T02:07:20.020Z,80.8
2022-08-28T02:12:59.521Z,80.7
2022-08-28T02:18:34.568Z,80.8
2022-08-28T02:24:19.280Z,80.7
2022-08-28T02:29:54.375Z,80.7
2022-08-28T02:35:30.093Z,80.7
2022-08-28T02:41:04.827Z,80.8
2022-08-28T02:46:39.814Z,80.9
2022-08-28T02:52:15.864Z,81.1
2022-08-28T02:57:50.846Z,81.1
2022-08-28T03:03:25.566Z,81
2022-08-28T03:09:00.396Z,81
2022-08-28T03:14:37.256Z,80.9
2022-08-28T03:20:14.087Z,80.9
2022-08-28T03:25:49.111Z,80.9
2022-08-28T03:31:23.927Z,80.9
2022-08-28T03:36:58.722Z,80.9
2022-08-28T03:42:55.180Z,80.9
2022-08-28T03:48:28.851Z,81
2022-08-28T03:54:03.675Z,81
2022-08-28T03:59:38.426Z,81
2022-08-28T04:05:14.037Z,81
2022-08-28T04:10:49.027Z,81
2022-08-28T04:16:24.369Z,81
2022-08-28T04:22:01.049Z,80.9
2022-08-28T04:27:36.241Z,81
2022-08-28T04:33:12.208Z,80.9
2022-08-28T04:38:46.996Z,80.9
2022-08-28T04:44:43.578Z,80.7
2022-08-28T04:50:16.253Z,80.8
2022-08-28T04:55:55.404Z,80.8
2022-08-28T05:01:30.705Z,80.8
2022-08-28T05:07:05.893Z,80.6
2022-08-28T05:12:40.774Z,80.6
2022-08-28T05:18:15.571Z,80.9
2022-08-28T05:23:51.515Z,80.8
2022-08-28T05:29:26.300Z,80.9
2022-08-28T05:35:01.092Z,80.8
2022-08-28T05:40:36.255Z,80.9
2022-08-28T05:46:13.037Z,80.9
2022-08-28T05:51:49.003Z,80.9
2022-08-28T05:57:23.999Z,80.8
2022-08-28T06:02:58.628Z,80.8
2022-08-28T06:08:36.277Z,80.7
2022-08-28T06:14:11.447Z,80.8
2022-08-28T06:19:46.392Z,80.8
2022-08-28T06:25:21.299Z,80.9
2022-08-28T06:31:25.950Z,80.9
2022-08-28T06:37:09.406Z,80.9
2022-08-28T06:43:05.937Z,81
2022-08-28T06:48:38.520Z,82.4
2022-08-28T06:54:13.233Z,81.9
2022-08-28T06:59:57.979Z,83.4
2022-08-28T07:05:32.712Z,82.8
2022-08-28T07:11:07.736Z,82.9
2022-08-28T07:16:42.723Z,82.8
2022-08-28T07:22:18.196Z,83
2022-08-28T07:27:54.067Z,83.8
2022-08-28T07:33:28.819Z,83.5
2022-08-28T07:39:03.836Z,81.9
2022-08-28T07:45:00.416Z,82.1
2022-08-28T07:50:33.092Z,81.6
2022-08-28T07:56:07.896Z,81.2
2022-08-28T08:01:43.023Z,81
2022-08-28T08:07:19.801Z,81.1
2022-08-28T08:12:55.112Z,80.8
2022-08-28T08:18:31.509Z,80
2022-08-28T08:24:20.183Z,79
2022-08-28T08:29:58.113Z,77.2
2022-08-28T08:35:32.833Z,76.3
2022-08-28T08:41:07.884Z,75.9
2022-08-28T08:46:43.004Z,73.5
2022-08-28T08:52:18.804Z,72.7
2022-08-28T08:57:53.790Z,72.3
2022-08-28T09:03:28.841Z,69.8
2022-08-28T09:09:04.348Z,70.2
2022-08-28T09:14:39.198Z,68.6
2022-08-28T09:20:14.455Z,69.6
2022-08-28T09:25:51.493Z,69
2022-08-28T09:31:28.893Z,68.6
2022-08-28T09:37:06.231Z,67.7
2022-08-28T09:42:41.106Z,67.2
2022-08-28T09:48:16.396Z,68
2022-08-28T09:53:51.580Z,66.8
2022-08-28T09:59:26.220Z,66.9
2022-08-28T10:05:01.106Z,66.2
2022-08-28T10:10:36.404Z,65.3
2022-08-28T10:16:11.415Z,64.2
2022-08-28T10:21:46.872Z,64.2
2022-08-28T10:27:21.683Z,63.1
2022-08-28T10:32:56.743Z,63.8
2022-08-28T10:38:32.569Z,64.1
2022-08-28T10:44:07.954Z,61.8
2022-08-28T10:49:42.763Z,63.3
2022-08-28T10:55:17.968Z,61
2022-08-28T11:00:52.660Z,61
2022-08-28T11:06:27.724Z,57.9
2022-08-28T11:12:02.984Z,59.7
2022-08-28T11:17:37.866Z,56.8
2022-08-28T11:23:13.763Z,53.3
2022-08-28T11:28:53.704Z,51
2022-08-28T11:34:36.657Z,54.5
2022-08-28T11:40:11.734Z,53.5
2022-08-28T11:45:48.191Z,54.7
2022-08-28T11:51:24.733Z,55.6
2022-08-28T11:57:01.475Z,51.2
2022-08-28T12:02:36.859Z,54.5
2022-08-28T12:08:14.191Z,51.5
2022-08-28T12:13:49.049Z,51.6
2022-08-28T12:19:24.835Z,48
2022-08-28T12:24:59.673Z,49.3
2022-08-28T12:30:35.873Z,53.3
2022-08-28T12:36:11.796Z,55.3
2022-08-28T12:42:08.570Z,55.6
2022-08-28T12:47:41.276Z,55.9
2022-08-28T12:53:16.129Z,55.2
2022-08-28T12:59:00.830Z,54.6
2022-08-28T13:04:35.749Z,53.8
2022-08-28T13:10:15.010Z,52.7
2022-08-28T13:15:49.924Z,54.2
2022-08-28T13:21:34.927Z,53.5
2022-08-28T13:27:10.162Z,52.7
2022-08-28T13:32:44.959Z,51.8
2022-08-28T13:38:25.469Z,51.9
2022-08-28T13:44:22.692Z,50.2
2022-08-28T13:49:56.490Z,50.2
2022-08-28T13:55:31.153Z,49.1
2022-08-28T14:01:06.272Z,48.9
2022-08-28T14:06:42.334Z,48.3
2022-08-28T14:12:17.505Z,47.8
2022-08-28T14:17:52.490Z,47.3
2022-08-28T14:23:27.419Z,47
2022-08-28T14:29:03.395Z,46.3
2022-08-28T14:34:38.182Z,46.5
2022-08-28T14:40:16.961Z,45.7
2022-08-28T14:45:53.971Z,45.7
2022-08-28T14:51:29.903Z,44.7
2022-08-28T14:57:05.308Z,44.6
2022-08-28T15:02:41.436Z,43.7
2022-08-28T15:08:16.520Z,43.2
2022-08-28T15:13:52.379Z,43.4
2022-08-28T15:19:27.263Z,42.9
2022-08-28T15:25:02.154Z,42.4
2022-08-28T15:30:37.065Z,43.2
2022-08-28T15:36:23.380Z,43.2
2022-08-28T15:42:19.959Z,44.3
2022-08-28T15:47:53.878Z,44.4
2022-08-28T15:53:28.555Z,45.1
2022-08-28T15:59:03.225Z,46.3
2022-08-28T16:04:37.914Z,46
2022-08-28T16:10:13.820Z,45.7
2022-08-28T16:15:48.552Z,45.5
2022-08-28T16:21:28.121Z,45.1
2022-08-28T16:27:07.955Z,45.3
2022-08-28T16:32:55.845Z,45.6
2022-08-28T16:38:33.557Z,45.8
2022-08-28T16:44:32.573Z,45.3
2022-08-28T16:50:05.286Z,44.8
2022-08-28T16:55:42.682Z,45.2
2022-08-28T17:01:20.246Z,45.8
2022-08-28T17:06:59.377Z,46.2
2022-08-28T17:12:34.268Z,46.6
2022-08-28T17:18:10.606Z,43.5
2022-08-28T17:23:45.333Z,42
2022-08-28T17:29:20.243Z,42.5
2022-08-28T17:34:54.845Z,45.3
2022-08-28T17:40:30.075Z,43.3
2022-08-28T17:46:05.889Z,45.9
2022-08-28T17:51:44.484Z,44.3
2022-08-28T17:57:19.958Z,44.8
2022-08-28T18:02:57.371Z,44.6
2022-08-28T18:08:35.949Z,47.2
2022-08-28T18:14:10.817Z,47.6
2022-08-28T18:19:49.561Z,46.1
2022-08-28T18:25:25.410Z,48.3
2022-08-28T18:31:00.652Z,50.4
2022-08-28T18:36:35.963Z,48.6
2022-08-28T18:42:32.440Z,47.4
2022-08-28T18:48:05.340Z,47.2
2022-08-28T18:53:43.662Z,54.8
2022-08-28T18:59:18.318Z,52.8
2022-08-28T19:04:53.060Z,54.6
2022-08-28T19:10:35.242Z,57.9
2022-08-28T19:16:10.554Z,57
2022-08-28T19:21:46.467Z,54.7
2022-08-28T19:27:22.282Z,55.8
2022-08-28T19:32:58.018Z,57.1
2022-08-28T19:38:32.837Z,52.7
2022-08-28T19:44:29.609Z,58.1
2022-08-28T19:50:03.332Z,63.7
2022-08-28T19:55:38.102Z,62.6
2022-08-28T20:01:13.412Z,62.4
2022-08-28T20:06:48.712Z,62
2022-08-28T20:12:23.566Z,63
2022-08-28T20:17:58.364Z,64
2022-08-28T20:23:33.035Z,65.2
2022-08-28T20:29:07.724Z,63.3
2022-08-28T20:34:44.925Z,62.9
2022-08-28T20:40:21.071Z,62.6
2022-08-28T20:45:56.872Z,64.8
2022-08-28T20:51:32.509Z,65.1
2022-08-28T20:57:08.029Z,67
2022-08-28T21:02:42.688Z,67.5
2022-08-28T21:08:17.398Z,67.7
2022-08-28T21:13:52.292Z,67.5
2022-08-28T21:19:30.514Z,66.6
2022-08-28T21:25:15.408Z,67.1
2022-08-28T21:30:50.382Z,68.4
2022-08-28T21:36:26.028Z,72.6
2022-08-28T21:42:22.562Z,73.1
2022-08-28T21:47:55.411Z,73
2022-08-28T21:53:30.294Z,68.4
2022-08-28T21:59:05.314Z,69.9
2022-08-28T22:04:40.060Z,72.9
2022-08-28T22:10:14.899Z,71
2022-08-28T22:15:49.625Z,69.6
2022-08-28T22:21:24.967Z,69
2022-08-28T22:26:59.938Z,68.6
2022-08-28T22:32:35.870Z,68.4
2022-08-28T22:38:10.749Z,68.3
2022-08-28T22:44:07.463Z,68.1
2022-08-28T22:49:40.237Z,68
2022-08-28T22:55:14.982Z,67.9
2022-08-28T23:00:49.780Z,67.8
2022-08-28T23:06:24.499Z,68
2022-08-28T23:12:00.727Z,68.1
2022-08-28T23:17:35.572Z,68.5
2022-08-28T23:23:11.799Z,68.8
2022-08-28T23:28:46.723Z,68.8
2022-08-28T23:34:21.530Z,68.8
2022-08-28T23:40:01.200Z,68.7
2022-08-28T23:45:36.953Z,68.5
2022-08-28T23:51:13.610Z,68.7
2022-08-28T23:56:51.228Z,69
